sensor_id;sensor_type;location;lat;lon;timestamp;P1;durP1;ratioP1;P2;durP2;ratioP2
25123;SDS011;13104;51.030;4.686;2024-01-15T00:00:20;5.50;;;3.00;;
25123;SDS011;13104;51.030;4.686;2024-01-15T00:02:46;4.93;;;3.25;;
25123;SDS011;13104;51.030;4.686;2024-01-15T00:05:12;5.53;;;3.83;;
25123;SDS011;13104;51.030;4.686;2024-01-15T00:07:38;6.20;;;2.67;;
25123;SDS011;13104;51.030;4.686;2024-01-15T00:10:05;3.92;;;2.30;;
25123;SDS011;13104;51.030;4.686;2024-01-15T00:12:31;9.82;;;4.13;;
25123;SDS011;13104;51.030;4.686;2024-01-15T00:14:57;6.10;;;3.03;;
25123;SDS011;13104;51.030;4.686;2024-01-15T00:17:23;10.88;;;3.85;;
25123;SDS011;13104;51.030;4.686;2024-01-15T00:19:49;9.50;;;4.00;;
25123;SDS011;13104;51.030;4.686;2024-01-15T00:22:15;9.50;;;3.08;;
25123;SDS011;13104;51.030;4.686;2024-01-15T00:24:41;10.70;;;3.28;;
25123;SDS011;13104;51.030;4.686;2024-01-15T00:27:07;5.28;;;3.33;;
25123;SDS011;13104;51.030;4.686;2024-01-15T00:29:33;4.68;;;2.88;;
25123;SDS011;13104;51.030;4.686;2024-01-15T00:31:59;10.75;;;3.10;;
25123;SDS011;13104;51.030;4.686;2024-01-15T00:34:26;9.70;;;2.90;;
25123;SDS011;13104;51.030;4.686;2024-01-15T00:36:52;7.93;;;3.72;;
25123;SDS011;13104;51.030;4.686;2024-01-15T00:39:18;5.90;;;2.55;;
25123;SDS011;13104;51.030;4.686;2024-01-15T00:41:44;11.63;;;2.45;;
25123;SDS011;13104;51.030;4.686;2024-01-15T00:44:10;5.43;;;3.45;;
25123;SDS011;13104;51.030;4.686;2024-01-15T00:46:43;8.52;;;2.97;;
25123;SDS011;13104;51.030;4.686;2024-01-15T00:49:10;3.10;;;1.80;;
25123;SDS011;13104;51.030;4.686;2024-01-15T00:51:36;3.25;;;2.15;;
25123;SDS011;13104;51.030;4.686;2024-01-15T00:54:02;1.83;;;1.35;;
25123;SDS011;13104;51.030;4.686;2024-01-15T00:56:28;8.93;;;3.75;;
25123;SDS011;13104;51.030;4.686;2024-01-15T00:58:55;8.65;;;3.15;;
25123;SDS011;13104;51.030;4.686;2024-01-15T01:01:21;5.50;;;1.77;;
25123;SDS011;13104;51.030;4.686;2024-01-15T01:03:47;5.90;;;3.42;;
25123;SDS011;13104;51.030;4.686;2024-01-15T01:06:13;7.22;;;3.10;;
25123;SDS011;13104;51.030;4.686;2024-01-15T01:08:39;5.00;;;2.30;;
25123;SDS011;13104;51.030;4.686;2024-01-15T01:11:05;7.32;;;2.85;;
25123;SDS011;13104;51.030;4.686;2024-01-15T01:13:32;4.35;;;2.63;;
25123;SDS011;13104;51.030;4.686;2024-01-15T01:15:58;11.70;;;2.55;;
25123;SDS011;13104;51.030;4.686;2024-01-15T01:18:24;4.47;;;2.38;;
25123;SDS011;13104;51.030;4.686;2024-01-15T01:20:50;2.88;;;2.28;;
25123;SDS011;13104;51.030;4.686;2024-01-15T01:23:16;2.00;;;1.63;;
25123;SDS011;13104;51.030;4.686;2024-01-15T01:25:42;4.28;;;2.50;;
25123;SDS011;13104;51.030;4.686;2024-01-15T01:28:08;7.80;;;2.92;;
25123;SDS011;13104;51.030;4.686;2024-01-15T01:30:35;7.10;;;2.35;;
25123;SDS011;13104;51.030;4.686;2024-01-15T01:33:01;5.25;;;2.78;;
25123;SDS011;13104;51.030;4.686;2024-01-15T01:35:27;6.47;;;3.05;;
25123;SDS011;13104;51.030;4.686;2024-01-15T01:37:53;3.95;;;2.45;;
25123;SDS011;13104;51.030;4.686;2024-01-15T01:40:19;4.25;;;2.17;;
25123;SDS011;13104;51.030;4.686;2024-01-15T01:42:45;3.33;;;2.00;;
25123;SDS011;13104;51.030;4.686;2024-01-15T01:45:11;12.70;;;3.13;;
25123;SDS011;13104;51.030;4.686;2024-01-15T01:47:37;4.15;;;2.17;;
25123;SDS011;13104;51.030;4.686;2024-01-15T01:50:04;10.00;;;1.95;;
25123;SDS011;13104;51.030;4.686;2024-01-15T01:52:31;2.75;;;1.45;;
25123;SDS011;13104;51.030;4.686;2024-01-15T01:54:57;8.80;;;3.35;;
25123;SDS011;13104;51.030;4.686;2024-01-15T01:57:24;4.88;;;2.33;;
25123;SDS011;13104;51.030;4.686;2024-01-15T01:59:50;3.65;;;2.28;;
25123;SDS011;13104;51.030;4.686;2024-01-15T02:02:16;3.47;;;2.55;;
25123;SDS011;13104;51.030;4.686;2024-01-15T02:04:42;7.18;;;2.42;;
25123;SDS011;13104;51.030;4.686;2024-01-15T02:07:09;3.80;;;2.47;;
25123;SDS011;13104;51.030;4.686;2024-01-15T02:09:35;14.18;;;3.03;;
25123;SDS011;13104;51.030;4.686;2024-01-15T02:12:01;5.78;;;2.25;;
25123;SDS011;13104;51.030;4.686;2024-01-15T02:14:27;5.88;;;3.08;;
25123;SDS011;13104;51.030;4.686;2024-01-15T02:16:54;3.15;;;2.03;;
25123;SDS011;13104;51.030;4.686;2024-01-15T02:19:20;3.53;;;2.00;;
25123;SDS011;13104;51.030;4.686;2024-01-15T02:21:46;3.78;;;1.67;;
25123;SDS011;13104;51.030;4.686;2024-01-15T02:24:12;7.15;;;1.55;;
25123;SDS011;13104;51.030;4.686;2024-01-15T02:26:38;3.53;;;1.83;;
25123;SDS011;13104;51.030;4.686;2024-01-15T02:29:05;3.67;;;2.30;;
25123;SDS011;13104;51.030;4.686;2024-01-15T02:31:33;5.00;;;1.90;;
25123;SDS011;13104;51.030;4.686;2024-01-15T02:33:59;18.77;;;2.13;;
25123;SDS011;13104;51.030;4.686;2024-01-15T02:36:25;2.22;;;1.50;;
25123;SDS011;13104;51.030;4.686;2024-01-15T02:38:52;2.20;;;1.58;;
25123;SDS011;13104;51.030;4.686;2024-01-15T02:41:18;4.72;;;2.15;;
25123;SDS011;13104;51.030;4.686;2024-01-15T02:43:44;1.58;;;1.33;;
25123;SDS011;13104;51.030;4.686;2024-01-15T02:46:10;7.25;;;1.55;;
25123;SDS011;13104;51.030;4.686;2024-01-15T02:48:36;2.78;;;1.23;;
25123;SDS011;13104;51.030;4.686;2024-01-15T02:51:02;1.98;;;0.90;;
25123;SDS011;13104;51.030;4.686;2024-01-15T02:53:28;2.05;;;1.40;;
25123;SDS011;13104;51.030;4.686;2024-01-15T02:55:54;2.80;;;2.15;;
25123;SDS011;13104;51.030;4.686;2024-01-15T02:58:21;2.33;;;1.58;;
25123;SDS011;13104;51.030;4.686;2024-01-15T03:00:47;2.05;;;1.20;;
25123;SDS011;13104;51.030;4.686;2024-01-15T03:03:13;0.80;;;0.80;;
25123;SDS011;13104;51.030;4.686;2024-01-15T03:05:39;2.25;;;1.05;;
25123;SDS011;13104;51.030;4.686;2024-01-15T03:08:05;1.52;;;1.10;;
25123;SDS011;13104;51.030;4.686;2024-01-15T03:10:31;0.93;;;0.93;;
25123;SDS011;13104;51.030;4.686;2024-01-15T03:12:57;2.85;;;1.77;;
25123;SDS011;13104;51.030;4.686;2024-01-15T03:15:23;1.02;;;0.80;;
25123;SDS011;13104;51.030;4.686;2024-01-15T03:17:49;1.33;;;1.10;;
25123;SDS011;13104;51.030;4.686;2024-01-15T03:20:16;1.80;;;1.35;;
25123;SDS011;13104;51.030;4.686;2024-01-15T03:22:42;1.10;;;0.90;;
25123;SDS011;13104;51.030;4.686;2024-01-15T03:25:08;3.05;;;1.20;;
25123;SDS011;13104;51.030;4.686;2024-01-15T03:27:34;1.00;;;0.95;;
25123;SDS011;13104;51.030;4.686;2024-01-15T03:30:00;1.02;;;0.88;;
25123;SDS011;13104;51.030;4.686;2024-01-15T03:32:27;2.95;;;1.58;;
25123;SDS011;13104;51.030;4.686;2024-01-15T03:34:53;2.17;;;1.45;;
25123;SDS011;13104;51.030;4.686;2024-01-15T03:37:19;2.28;;;1.25;;
25123;SDS011;13104;51.030;4.686;2024-01-15T03:39:46;0.82;;;0.82;;
25123;SDS011;13104;51.030;4.686;2024-01-15T03:42:12;1.20;;;1.10;;
25123;SDS011;13104;51.030;4.686;2024-01-15T03:44:39;1.10;;;0.98;;
25123;SDS011;13104;51.030;4.686;2024-01-15T03:47:05;0.95;;;0.80;;
25123;SDS011;13104;51.030;4.686;2024-01-15T03:49:31;1.58;;;1.48;;
25123;SDS011;13104;51.030;4.686;2024-01-15T03:51:57;5.05;;;1.33;;
25123;SDS011;13104;51.030;4.686;2024-01-15T03:54:23;1.85;;;1.00;;
25123;SDS011;13104;51.030;4.686;2024-01-15T03:56:50;1.85;;;1.25;;
25123;SDS011;13104;51.030;4.686;2024-01-15T03:59:16;6.15;;;1.58;;
25123;SDS011;13104;51.030;4.686;2024-01-15T04:01:47;7.88;;;1.27;;
25123;SDS011;13104;51.030;4.686;2024-01-15T04:04:14;1.30;;;1.05;;
25123;SDS011;13104;51.030;4.686;2024-01-15T04:06:40;1.30;;;1.20;;
25123;SDS011;13104;51.030;4.686;2024-01-15T04:09:06;1.40;;;1.27;;
25123;SDS011;13104;51.030;4.686;2024-01-15T04:11:32;0.63;;;0.63;;
25123;SDS011;13104;51.030;4.686;2024-01-15T04:13:58;1.35;;;1.25;;
25123;SDS011;13104;51.030;4.686;2024-01-15T04:16:24;3.72;;;1.33;;
25123;SDS011;13104;51.030;4.686;2024-01-15T04:18:50;2.03;;;1.58;;
25123;SDS011;13104;51.030;4.686;2024-01-15T04:21:17;1.30;;;1.20;;
25123;SDS011;13104;51.030;4.686;2024-01-15T04:23:43;2.30;;;1.35;;
25123;SDS011;13104;51.030;4.686;2024-01-15T04:26:09;4.05;;;1.35;;
25123;SDS011;13104;51.030;4.686;2024-01-15T04:28:35;1.80;;;1.35;;
25123;SDS011;13104;51.030;4.686;2024-01-15T04:31:01;1.92;;;1.67;;
25123;SDS011;13104;51.030;4.686;2024-01-15T04:33:27;5.13;;;2.40;;
25123;SDS011;13104;51.030;4.686;2024-01-15T04:35:54;2.35;;;1.48;;
25123;SDS011;13104;51.030;4.686;2024-01-15T04:38:20;3.08;;;2.22;;
25123;SDS011;13104;51.030;4.686;2024-01-15T04:40:46;4.82;;;1.95;;
25123;SDS011;13104;51.030;4.686;2024-01-15T04:43:12;4.88;;;1.63;;
25123;SDS011;13104;51.030;4.686;2024-01-15T04:45:38;4.05;;;1.90;;
25123;SDS011;13104;51.030;4.686;2024-01-15T04:48:04;2.10;;;1.70;;
25123;SDS011;13104;51.030;4.686;2024-01-15T04:50:30;4.45;;;2.03;;
25123;SDS011;13104;51.030;4.686;2024-01-15T04:52:56;3.13;;;1.70;;
25123;SDS011;13104;51.030;4.686;2024-01-15T04:55:22;1.55;;;0.95;;
25123;SDS011;13104;51.030;4.686;2024-01-15T04:57:49;1.80;;;1.55;;
25123;SDS011;13104;51.030;4.686;2024-01-15T05:00:15;4.80;;;2.10;;
25123;SDS011;13104;51.030;4.686;2024-01-15T05:02:41;1.58;;;1.15;;
25123;SDS011;13104;51.030;4.686;2024-01-15T05:05:07;4.93;;;2.60;;
25123;SDS011;13104;51.030;4.686;2024-01-15T05:07:33;2.92;;;1.83;;
25123;SDS011;13104;51.030;4.686;2024-01-15T05:09:59;2.53;;;1.45;;
25123;SDS011;13104;51.030;4.686;2024-01-15T05:12:26;3.90;;;2.30;;
25123;SDS011;13104;51.030;4.686;2024-01-15T05:14:52;2.55;;;1.58;;
25123;SDS011;13104;51.030;4.686;2024-01-15T05:17:18;2.83;;;1.85;;
25123;SDS011;13104;51.030;4.686;2024-01-15T05:19:44;17.27;;;2.10;;
25123;SDS011;13104;51.030;4.686;2024-01-15T05:22:10;3.42;;;1.65;;
25123;SDS011;13104;51.030;4.686;2024-01-15T05:24:36;9.68;;;1.70;;
25123;SDS011;13104;51.030;4.686;2024-01-15T05:27:02;2.60;;;1.95;;
25123;SDS011;13104;51.030;4.686;2024-01-15T05:29:28;3.40;;;2.28;;
25123;SDS011;13104;51.030;4.686;2024-01-15T05:31:55;2.15;;;1.90;;
25123;SDS011;13104;51.030;4.686;2024-01-15T05:34:21;11.88;;;2.28;;
25123;SDS011;13104;51.030;4.686;2024-01-15T05:36:47;7.38;;;1.80;;
25123;SDS011;13104;51.030;4.686;2024-01-15T05:39:13;2.60;;;1.67;;
25123;SDS011;13104;51.030;4.686;2024-01-15T05:41:39;6.57;;;3.25;;
25123;SDS011;13104;51.030;4.686;2024-01-15T05:44:05;8.40;;;2.10;;
25123;SDS011;13104;51.030;4.686;2024-01-15T05:46:31;1.42;;;1.10;;
25123;SDS011;13104;51.030;4.686;2024-01-15T05:48:57;3.35;;;2.45;;
25123;SDS011;13104;51.030;4.686;2024-01-15T05:51:23;12.65;;;2.08;;
25123;SDS011;13104;51.030;4.686;2024-01-15T05:53:50;3.08;;;1.95;;
25123;SDS011;13104;51.030;4.686;2024-01-15T05:56:16;6.38;;;2.28;;
25123;SDS011;13104;51.030;4.686;2024-01-15T05:58:42;1.67;;;0.90;;
25123;SDS011;13104;51.030;4.686;2024-01-15T06:01:09;1.58;;;1.40;;
25123;SDS011;13104;51.030;4.686;2024-01-15T06:03:35;1.48;;;1.33;;
25123;SDS011;13104;51.030;4.686;2024-01-15T06:06:01;2.15;;;1.10;;
25123;SDS011;13104;51.030;4.686;2024-01-15T06:08:27;6.82;;;1.13;;
25123;SDS011;13104;51.030;4.686;2024-01-15T06:10:53;1.60;;;1.50;;
25123;SDS011;13104;51.030;4.686;2024-01-15T06:13:21;5.30;;;1.58;;
25123;SDS011;13104;51.030;4.686;2024-01-15T06:15:47;1.08;;;0.98;;
25123;SDS011;13104;51.030;4.686;2024-01-15T06:18:14;1.13;;;1.02;;
25123;SDS011;13104;51.030;4.686;2024-01-15T06:20:40;2.03;;;1.30;;
25123;SDS011;13104;51.030;4.686;2024-01-15T06:23:06;1.65;;;1.25;;
25123;SDS011;13104;51.030;4.686;2024-01-15T06:25:32;1.95;;;1.30;;
25123;SDS011;13104;51.030;4.686;2024-01-15T06:27:58;1.45;;;0.95;;
25123;SDS011;13104;51.030;4.686;2024-01-15T06:30:24;2.15;;;0.95;;
25123;SDS011;13104;51.030;4.686;2024-01-15T06:32:50;2.47;;;1.30;;
25123;SDS011;13104;51.030;4.686;2024-01-15T06:35:16;1.00;;;0.90;;
25123;SDS011;13104;51.030;4.686;2024-01-15T06:37:43;0.93;;;0.93;;
25123;SDS011;13104;51.030;4.686;2024-01-15T06:40:09;6.68;;;0.95;;
25123;SDS011;13104;51.030;4.686;2024-01-15T06:42:35;1.13;;;0.90;;
25123;SDS011;13104;51.030;4.686;2024-01-15T06:45:01;0.80;;;0.80;;
25123;SDS011;13104;51.030;4.686;2024-01-15T06:47:27;1.27;;;0.90;;
25123;SDS011;13104;51.030;4.686;2024-01-15T06:49:53;0.73;;;0.73;;
25123;SDS011;13104;51.030;4.686;2024-01-15T06:52:20;1.20;;;0.98;;
25123;SDS011;13104;51.030;4.686;2024-01-15T06:54:47;4.13;;;0.85;;
25123;SDS011;13104;51.030;4.686;2024-01-15T06:57:13;1.25;;;0.80;;
25123;SDS011;13104;51.030;4.686;2024-01-15T06:59:39;1.20;;;1.10;;
25123;SDS011;13104;51.030;4.686;2024-01-15T07:02:06;4.32;;;0.98;;
25123;SDS011;13104;51.030;4.686;2024-01-15T07:04:32;0.82;;;0.57;;
25123;SDS011;13104;51.030;4.686;2024-01-15T07:06:58;1.02;;;0.70;;
25123;SDS011;13104;51.030;4.686;2024-01-15T07:09:24;0.80;;;0.80;;
25123;SDS011;13104;51.030;4.686;2024-01-15T07:11:50;0.70;;;0.60;;
25123;SDS011;13104;51.030;4.686;2024-01-15T07:14:16;0.98;;;0.82;;
25123;SDS011;13104;51.030;4.686;2024-01-15T07:16:42;0.52;;;0.52;;
25123;SDS011;13104;51.030;4.686;2024-01-15T07:19:08;2.38;;;1.40;;
25123;SDS011;13104;51.030;4.686;2024-01-15T07:21:35;2.78;;;1.40;;
25123;SDS011;13104;51.030;4.686;2024-01-15T07:24:01;0.60;;;0.60;;
25123;SDS011;13104;51.030;4.686;2024-01-15T07:26:27;0.50;;;0.50;;
25123;SDS011;13104;51.030;4.686;2024-01-15T07:28:53;1.42;;;1.17;;
25123;SDS011;13104;51.030;4.686;2024-01-15T07:31:19;0.93;;;0.75;;
25123;SDS011;13104;51.030;4.686;2024-01-15T07:33:45;0.73;;;0.73;;
25123;SDS011;13104;51.030;4.686;2024-01-15T07:36:11;1.73;;;0.85;;
25123;SDS011;13104;51.030;4.686;2024-01-15T07:38:37;2.60;;;0.90;;
25123;SDS011;13104;51.030;4.686;2024-01-15T07:41:03;6.15;;;1.33;;
25123;SDS011;13104;51.030;4.686;2024-01-15T07:43:30;0.50;;;0.50;;
25123;SDS011;13104;51.030;4.686;2024-01-15T07:45:56;1.45;;;1.13;;
25123;SDS011;13104;51.030;4.686;2024-01-15T07:48:22;1.05;;;0.85;;
25123;SDS011;13104;51.030;4.686;2024-01-15T07:50:48;2.47;;;1.65;;
25123;SDS011;13104;51.030;4.686;2024-01-15T07:53:14;10.70;;;0.88;;
25123;SDS011;13104;51.030;4.686;2024-01-15T07:55:41;1.05;;;0.88;;
25123;SDS011;13104;51.030;4.686;2024-01-15T07:58:07;0.50;;;0.50;;
25123;SDS011;13104;51.030;4.686;2024-01-15T08:00:33;12.48;;;1.33;;
25123;SDS011;13104;51.030;4.686;2024-01-15T08:02:59;1.13;;;0.82;;
25123;SDS011;13104;51.030;4.686;2024-01-15T08:05:25;0.95;;;0.60;;
25123;SDS011;13104;51.030;4.686;2024-01-15T08:07:51;2.15;;;1.30;;
25123;SDS011;13104;51.030;4.686;2024-01-15T08:10:17;0.50;;;0.50;;
25123;SDS011;13104;51.030;4.686;2024-01-15T08:12:43;1.10;;;0.90;;
25123;SDS011;13104;51.030;4.686;2024-01-15T08:15:09;0.40;;;0.40;;
25123;SDS011;13104;51.030;4.686;2024-01-15T08:17:35;9.10;;;0.77;;
25123;SDS011;13104;51.030;4.686;2024-01-15T08:20:02;3.88;;;0.95;;
25123;SDS011;13104;51.030;4.686;2024-01-15T08:22:29;4.63;;;1.88;;
25123;SDS011;13104;51.030;4.686;2024-01-15T08:24:56;1.10;;;0.98;;
25123;SDS011;13104;51.030;4.686;2024-01-15T08:27:22;1.55;;;1.10;;
25123;SDS011;13104;51.030;4.686;2024-01-15T08:29:48;0.93;;;0.88;;
25123;SDS011;13104;51.030;4.686;2024-01-15T08:32:14;2.63;;;2.17;;
25123;SDS011;13104;51.030;4.686;2024-01-15T08:34:40;12.57;;;1.23;;
25123;SDS011;13104;51.030;4.686;2024-01-15T08:37:07;1.80;;;1.42;;
25123;SDS011;13104;51.030;4.686;2024-01-15T08:39:33;5.15;;;1.88;;
25123;SDS011;13104;51.030;4.686;2024-01-15T08:42:02;2.20;;;1.83;;
25123;SDS011;13104;51.030;4.686;2024-01-15T08:44:28;1.35;;;0.90;;
25123;SDS011;13104;51.030;4.686;2024-01-15T08:46:54;1.13;;;1.02;;
25123;SDS011;13104;51.030;4.686;2024-01-15T08:49:20;0.73;;;0.73;;
25123;SDS011;13104;51.030;4.686;2024-01-15T08:51:46;2.97;;;1.05;;
25123;SDS011;13104;51.030;4.686;2024-01-15T08:54:13;2.42;;;0.77;;
25123;SDS011;13104;51.030;4.686;2024-01-15T08:56:39;1.23;;;0.85;;
25123;SDS011;13104;51.030;4.686;2024-01-15T08:59:05;1.42;;;0.90;;
25123;SDS011;13104;51.030;4.686;2024-01-15T09:01:31;0.73;;;0.68;;
25123;SDS011;13104;51.030;4.686;2024-01-15T09:03:57;4.40;;;1.35;;
25123;SDS011;13104;51.030;4.686;2024-01-15T09:06:23;0.70;;;0.70;;
25123;SDS011;13104;51.030;4.686;2024-01-15T09:08:49;2.28;;;0.80;;
25123;SDS011;13104;51.030;4.686;2024-01-15T09:11:15;1.77;;;1.20;;
25123;SDS011;13104;51.030;4.686;2024-01-15T09:13:41;1.58;;;1.08;;
25123;SDS011;13104;51.030;4.686;2024-01-15T09:16:07;1.10;;;0.77;;
25123;SDS011;13104;51.030;4.686;2024-01-15T09:18:33;8.68;;;1.40;;
25123;SDS011;13104;51.030;4.686;2024-01-15T09:20:59;0.88;;;0.60;;
25123;SDS011;13104;51.030;4.686;2024-01-15T09:23:26;2.78;;;1.35;;
25123;SDS011;13104;51.030;4.686;2024-01-15T09:25:52;7.93;;;1.52;;
25123;SDS011;13104;51.030;4.686;2024-01-15T09:28:18;3.00;;;1.65;;
25123;SDS011;13104;51.030;4.686;2024-01-15T09:30:44;1.45;;;0.93;;
25123;SDS011;13104;51.030;4.686;2024-01-15T09:33:10;1.23;;;0.73;;
25123;SDS011;13104;51.030;4.686;2024-01-15T09:35:36;2.95;;;1.42;;
25123;SDS011;13104;51.030;4.686;2024-01-15T09:38:02;2.28;;;1.33;;
25123;SDS011;13104;51.030;4.686;2024-01-15T09:40:31;3.03;;;1.10;;
25123;SDS011;13104;51.030;4.686;2024-01-15T09:43:00;1.02;;;0.60;;
25123;SDS011;13104;51.030;4.686;2024-01-15T09:45:27;1.48;;;0.75;;
25123;SDS011;13104;51.030;4.686;2024-01-15T09:47:54;0.98;;;0.98;;
25123;SDS011;13104;51.030;4.686;2024-01-15T09:50:20;2.95;;;0.68;;
25123;SDS011;13104;51.030;4.686;2024-01-15T09:52:46;11.18;;;0.70;;
25123;SDS011;13104;51.030;4.686;2024-01-15T09:55:13;0.55;;;0.55;;
25123;SDS011;13104;51.030;4.686;2024-01-15T09:57:41;1.95;;;0.95;;
25123;SDS011;13104;51.030;4.686;2024-01-15T10:00:07;0.50;;;0.50;;
25123;SDS011;13104;51.030;4.686;2024-01-15T10:02:35;1.17;;;0.85;;
25123;SDS011;13104;51.030;4.686;2024-01-15T10:05:02;0.88;;;0.63;;
25123;SDS011;13104;51.030;4.686;2024-01-15T10:07:28;3.65;;;0.93;;
25123;SDS011;13104;51.030;4.686;2024-01-15T10:09:55;2.35;;;0.82;;
25123;SDS011;13104;51.030;4.686;2024-01-15T10:12:24;5.97;;;0.75;;
25123;SDS011;13104;51.030;4.686;2024-01-15T10:14:52;4.55;;;0.80;;
25123;SDS011;13104;51.030;4.686;2024-01-15T10:17:18;0.47;;;0.47;;
25123;SDS011;13104;51.030;4.686;2024-01-15T10:19:47;1.45;;;1.02;;
25123;SDS011;13104;51.030;4.686;2024-01-15T10:22:13;2.03;;;0.65;;
25123;SDS011;13104;51.030;4.686;2024-01-15T10:24:40;0.95;;;0.68;;
25123;SDS011;13104;51.030;4.686;2024-01-15T10:27:07;0.63;;;0.63;;
25123;SDS011;13104;51.030;4.686;2024-01-15T10:29:34;0.68;;;0.60;;
25123;SDS011;13104;51.030;4.686;2024-01-15T10:32:00;2.47;;;0.88;;
25123;SDS011;13104;51.030;4.686;2024-01-15T10:34:26;4.03;;;1.60;;
25123;SDS011;13104;51.030;4.686;2024-01-15T10:36:52;4.70;;;2.40;;
25123;SDS011;13104;51.030;4.686;2024-01-15T10:39:20;4.53;;;2.03;;
25123;SDS011;13104;51.030;4.686;2024-01-15T10:41:47;1.00;;;0.93;;
25123;SDS011;13104;51.030;4.686;2024-01-15T10:44:13;3.85;;;1.52;;
25123;SDS011;13104;51.030;4.686;2024-01-15T10:46:39;10.23;;;1.50;;
25123;SDS011;13104;51.030;4.686;2024-01-15T10:49:05;4.88;;;2.13;;
25123;SDS011;13104;51.030;4.686;2024-01-15T10:51:32;5.95;;;1.13;;
25123;SDS011;13104;51.030;4.686;2024-01-15T10:53:58;1.23;;;0.80;;
25123;SDS011;13104;51.030;4.686;2024-01-15T10:56:25;7.15;;;0.93;;
25123;SDS011;13104;51.030;4.686;2024-01-15T10:58:52;1.17;;;0.45;;
25123;SDS011;13104;51.030;4.686;2024-01-15T11:01:18;0.50;;;0.50;;
25123;SDS011;13104;51.030;4.686;2024-01-15T11:03:44;0.63;;;0.60;;
25123;SDS011;13104;51.030;4.686;2024-01-15T11:06:17;3.47;;;0.70;;
25123;SDS011;13104;51.030;4.686;2024-01-15T11:08:49;0.95;;;0.60;;
25123;SDS011;13104;51.030;4.686;2024-01-15T11:11:16;4.28;;;1.00;;
25123;SDS011;13104;51.030;4.686;2024-01-15T11:13:49;0.70;;;0.70;;
25123;SDS011;13104;51.030;4.686;2024-01-15T11:16:17;0.68;;;0.57;;
25123;SDS011;13104;51.030;4.686;2024-01-15T11:19:01;0.65;;;0.57;;
25123;SDS011;13104;51.030;4.686;2024-01-15T11:21:27;5.50;;;0.63;;
25123;SDS011;13104;51.030;4.686;2024-01-15T11:23:59;0.38;;;0.38;;
25123;SDS011;13104;51.030;4.686;2024-01-15T11:29:07;4.35;;;0.98;;
25123;SDS011;13104;51.030;4.686;2024-01-15T11:34:07;5.78;;;0.65;;
25123;SDS011;13104;51.030;4.686;2024-01-15T11:41:58;0.50;;;0.50;;
25123;SDS011;13104;51.030;4.686;2024-01-15T11:44:25;0.38;;;0.38;;
25123;SDS011;13104;51.030;4.686;2024-01-15T11:47:01;0.68;;;0.60;;
25123;SDS011;13104;51.030;4.686;2024-01-15T11:54:39;0.55;;;0.52;;
25123;SDS011;13104;51.030;4.686;2024-01-15T11:57:12;1.27;;;0.55;;
25123;SDS011;13104;51.030;4.686;2024-01-15T11:59:41;0.38;;;0.38;;
25123;SDS011;13104;51.030;4.686;2024-01-15T12:02:08;0.40;;;0.40;;
25123;SDS011;13104;51.030;4.686;2024-01-15T12:04:36;1.85;;;1.02;;
25123;SDS011;13104;51.030;4.686;2024-01-15T12:07:04;0.55;;;0.52;;
25123;SDS011;13104;51.030;4.686;2024-01-15T12:09:30;0.50;;;0.50;;
25123;SDS011;13104;51.030;4.686;2024-01-15T12:12:03;0.60;;;0.52;;
25123;SDS011;13104;51.030;4.686;2024-01-15T12:14:32;1.40;;;0.70;;
25123;SDS011;13104;51.030;4.686;2024-01-15T12:16:59;1.08;;;0.60;;
25123;SDS011;13104;51.030;4.686;2024-01-15T12:19:25;0.30;;;0.30;;
25123;SDS011;13104;51.030;4.686;2024-01-15T12:21:52;0.50;;;0.50;;
25123;SDS011;13104;51.030;4.686;2024-01-15T12:24:18;0.40;;;0.40;;
25123;SDS011;13104;51.030;4.686;2024-01-15T12:26:44;0.50;;;0.50;;
25123;SDS011;13104;51.030;4.686;2024-01-15T12:29:11;0.40;;;0.40;;
25123;SDS011;13104;51.030;4.686;2024-01-15T12:31:37;0.40;;;0.40;;
25123;SDS011;13104;51.030;4.686;2024-01-15T12:34:03;0.30;;;0.30;;
25123;SDS011;13104;51.030;4.686;2024-01-15T12:36:32;0.40;;;0.40;;
25123;SDS011;13104;51.030;4.686;2024-01-15T12:39:01;0.30;;;0.30;;
25123;SDS011;13104;51.030;4.686;2024-01-15T12:41:28;0.65;;;0.55;;
25123;SDS011;13104;51.030;4.686;2024-01-15T12:43:54;1.52;;;0.75;;
25123;SDS011;13104;51.030;4.686;2024-01-15T12:46:20;1.10;;;0.50;;
25123;SDS011;13104;51.030;4.686;2024-01-15T12:48:46;0.82;;;0.82;;
25123;SDS011;13104;51.030;4.686;2024-01-15T12:51:12;7.18;;;0.85;;
25123;SDS011;13104;51.030;4.686;2024-01-15T12:53:38;0.40;;;0.40;;
25123;SDS011;13104;51.030;4.686;2024-01-15T12:56:04;1.33;;;0.95;;
25123;SDS011;13104;51.030;4.686;2024-01-15T12:58:30;0.60;;;0.60;;
25123;SDS011;13104;51.030;4.686;2024-01-15T13:00:56;0.60;;;0.45;;
25123;SDS011;13104;51.030;4.686;2024-01-15T13:03:23;1.85;;;1.00;;
25123;SDS011;13104;51.030;4.686;2024-01-15T13:05:49;0.55;;;0.40;;
25123;SDS011;13104;51.030;4.686;2024-01-15T13:08:17;0.50;;;0.50;;
25123;SDS011;13104;51.030;4.686;2024-01-15T13:10:43;0.40;;;0.40;;
25123;SDS011;13104;51.030;4.686;2024-01-15T13:13:09;0.50;;;0.50;;
25123;SDS011;13104;51.030;4.686;2024-01-15T13:15:35;0.57;;;0.50;;
25123;SDS011;13104;51.030;4.686;2024-01-15T13:18:02;1.40;;;0.60;;
25123;SDS011;13104;51.030;4.686;2024-01-15T13:20:28;0.50;;;0.50;;
25123;SDS011;13104;51.030;4.686;2024-01-15T13:22:54;0.57;;;0.57;;
25123;SDS011;13104;51.030;4.686;2024-01-15T13:25:20;1.17;;;0.50;;
25123;SDS011;13104;51.030;4.686;2024-01-15T13:27:46;0.40;;;0.40;;
25123;SDS011;13104;51.030;4.686;2024-01-15T13:30:12;14.93;;;0.95;;
25123;SDS011;13104;51.030;4.686;2024-01-15T13:32:38;0.30;;;0.30;;
25123;SDS011;13104;51.030;4.686;2024-01-15T13:35:05;1.17;;;0.60;;
25123;SDS011;13104;51.030;4.686;2024-01-15T13:37:34;3.63;;;0.55;;
25123;SDS011;13104;51.030;4.686;2024-01-15T13:40:02;0.30;;;0.30;;
25123;SDS011;13104;51.030;4.686;2024-01-15T13:42:28;0.25;;;0.25;;
25123;SDS011;13104;51.030;4.686;2024-01-15T13:44:54;0.30;;;0.30;;
25123;SDS011;13104;51.030;4.686;2024-01-15T13:47:21;0.63;;;0.43;;
25123;SDS011;13104;51.030;4.686;2024-01-15T13:49:47;0.30;;;0.30;;
25123;SDS011;13104;51.030;4.686;2024-01-15T13:52:13;0.60;;;0.60;;
25123;SDS011;13104;51.030;4.686;2024-01-15T13:54:39;0.30;;;0.30;;
25123;SDS011;13104;51.030;4.686;2024-01-15T13:57:06;0.65;;;0.65;;
25123;SDS011;13104;51.030;4.686;2024-01-15T13:59:32;0.30;;;0.30;;
25123;SDS011;13104;51.030;4.686;2024-01-15T14:01:58;0.40;;;0.40;;
25123;SDS011;13104;51.030;4.686;2024-01-15T14:04:24;0.70;;;0.70;;
25123;SDS011;13104;51.030;4.686;2024-01-15T14:06:51;2.05;;;0.60;;
25123;SDS011;13104;51.030;4.686;2024-01-15T14:09:17;0.30;;;0.30;;
25123;SDS011;13104;51.030;4.686;2024-01-15T14:11:44;0.90;;;0.60;;
25123;SDS011;13104;51.030;4.686;2024-01-15T14:14:10;2.00;;;0.50;;
25123;SDS011;13104;51.030;4.686;2024-01-15T14:16:36;2.25;;;0.65;;
25123;SDS011;13104;51.030;4.686;2024-01-15T14:19:02;4.05;;;0.80;;
25123;SDS011;13104;51.030;4.686;2024-01-15T14:21:28;0.65;;;0.65;;
25123;SDS011;13104;51.030;4.686;2024-01-15T14:23:54;0.30;;;0.30;;
25123;SDS011;13104;51.030;4.686;2024-01-15T14:26:20;0.40;;;0.40;;
25123;SDS011;13104;51.030;4.686;2024-01-15T14:28:47;0.30;;;0.30;;
25123;SDS011;13104;51.030;4.686;2024-01-15T14:31:13;0.40;;;0.40;;
25123;SDS011;13104;51.030;4.686;2024-01-15T14:33:39;0.30;;;0.30;;
25123;SDS011;13104;51.030;4.686;2024-01-15T14:36:05;0.30;;;0.30;;
25123;SDS011;13104;51.030;4.686;2024-01-15T14:38:32;0.40;;;0.40;;
25123;SDS011;13104;51.030;4.686;2024-01-15T14:40:58;0.32;;;0.32;;
25123;SDS011;13104;51.030;4.686;2024-01-15T14:43:24;1.33;;;0.50;;
25123;SDS011;13104;51.030;4.686;2024-01-15T14:45:50;1.23;;;0.90;;
25123;SDS011;13104;51.030;4.686;2024-01-15T14:48:16;0.77;;;0.55;;
25123;SDS011;13104;51.030;4.686;2024-01-15T14:50:42;0.50;;;0.50;;
25123;SDS011;13104;51.030;4.686;2024-01-15T14:53:08;2.22;;;1.10;;
25123;SDS011;13104;51.030;4.686;2024-01-15T14:55:34;5.15;;;1.42;;
25123;SDS011;13104;51.030;4.686;2024-01-15T14:58:00;12.18;;;1.77;;